Time;durP1;ratioP1;P1;durP2;ratioP2;P2;SDS_P1;SDS_P2;PMS_P1;PMS_P2;Temp;Humidity;BMP_temperature;BMP_pressure;BME280_temperature;BME280_humidity;BME280_pressure;Samples;Min_cycle;Max_cycle;Signal;HPM_P1;HPM_P2
2022/07/21 00:00:17;;;;;;;;;;;19.70;59.00;;;;;;4143518;28;19914;-86
2022/07/21 00:02:21;;;;;;;;;;;19.70;59.30;;;;;;4149982;28;19929;-84
2022/07/21 00:04:21;;;;;;;;;;;19.60;58.90;;;;;;4155727;28;19976;-86
2022/07/21 00:06:22;;;;;;;;;;;19.60;59.00;;;;;;4141826;28;19914;-85
2022/07/21 00:08:23;;;;;;;;;;;19.60;59.10;;;;;;4141054;28;21381;-88
2022/07/21 00:10:24;;;;;;;;;;;19.60;58.90;;;;;;4143049;28;19933;-85
2022/07/21 00:12:25;;;;;;;;;;;19.60;59.00;;;;;;4141204;28;19922;-85
2022/07/21 00:14:25;;;;;;;;;;;19.60;59.30;;;;;;4112127;28;20392;-85
2022/07/21 00:16:26;;;;;;;;;;;19.50;59.40;;;;;;4141470;28;19917;-85
2022/07/21 00:18:28;;;;;;;;;;;19.50;59.40;;;;;;4142891;28;19961;-86
2022/07/21 00:20:33;;;;;;;;;;;19.50;59.40;;;;;;4123883;28;19914;-87
2022/07/21 00:22:34;;;;;;;;;;;19.40;59.10;;;;;;4126430;28;19928;-85
2022/07/21 00:24:34;;;;;;;;;;;19.40;59.20;;;;;;4141870;28;19917;-85
2022/07/21 00:26:35;;;;;;;;;;;19.40;59.20;;;;;;4138624;28;20000;-87
2022/07/21 00:28:36;;;;;;;;;;;19.40;59.50;;;;;;4141855;28;21600;-88
2022/07/21 00:30:36;;;;;;;;;;;19.40;59.40;;;;;;4139013;28;19983;-85
2022/07/21 00:32:41;;;;;;;;;;;19.30;59.40;;;;;;4126097;28;19949;-84
2022/07/21 00:34:41;;;;;;;;;;;19.30;59.80;;;;;;4119152;28;20008;-86
2022/07/21 00:36:42;;;;;;;;;;;19.30;60.10;;;;;;4140098;28;20347;-86
2022/07/21 00:38:42;;;;;;;;;;;19.30;59.70;;;;;;4141858;28;19917;-85
2022/07/21 00:40:43;;;;;;;;;;;19.20;59.80;;;;;;4139917;28;19925;-85
2022/07/21 00:42:45;;;;;;;;;;;19.20;59.90;;;;;;4144207;28;19913;-85
2022/07/21 00:44:46;;;;;;;;;;;19.20;60.50;;;;;;4142135;28;19917;-86
2022/07/21 00:46:46;;;;;;;;;;;19.20;60.30;;;;;;4140878;28;20850;-85
2022/07/21 00:48:47;;;;;;;;;;;19.20;60.40;;;;;;4125244;28;20025;-85
2022/07/21 00:50:48;;;;;;;;;;;19.10;60.40;;;;;;4127009;28;19914;-84
2022/07/21 00:52:49;;;;;;;;;;;19.10;60.40;;;;;;4141072;28;19913;-85
2022/07/21 00:54:50;;;;;;;;;;;19.10;60.00;;;;;;4122721;28;19917;-88
2022/07/21 00:56:51;;;;;;;;;;;19.10;60.50;;;;;;4141450;28;19924;-87
2022/07/21 00:58:52;;;;;;;;;;;19.10;60.00;;;;;;4123603;28;20395;-84
2022/07/21 01:00:52;;;;;;;;;;;19.10;60.60;;;;;;4141109;28;20005;-85
2022/07/21 01:02:54;;;;;;;;;;;19.10;60.50;;;;;;4141912;28;20024;-86
2022/07/21 01:04:55;;;;;;;;;;;19.00;60.40;;;;;;4106556;28;19915;-85
2022/07/21 01:06:56;;;;;;;;;;;19.00;60.70;;;;;;4142741;28;19928;-88
2022/07/21 01:08:57;;;;;;;;;;;19.00;60.70;;;;;;4108742;28;20005;-85
2022/07/21 01:10:57;;;;;;;;;;;19.00;60.40;;;;;;4127736;28;20366;-86
2022/07/21 01:12:59;;;;;;;;;;;19.00;60.40;;;;;;4125312;28;19960;-86
2022/07/21 01:15:00;;;;;;;;;;;18.90;60.20;;;;;;4140882;28;19979;-85
2022/07/21 01:17:01;;;;;;;;;;;18.90;60.80;;;;;;4124029;28;19948;-86
2022/07/21 01:19:20;;;;;;;;;;;18.90;60.80;;;;;;4125585;28;19914;-85
2022/07/21 01:21:43;;;;;;;;;;;18.90;61.00;;;;;;4141950;28;19969;-85
2022/07/21 01:24:04;;;;;;;;;;;18.80;61.00;;;;;;4141104;28;19929;-86
2022/07/21 01:26:25;;;;;;;;;;;18.80;60.70;;;;;;4142136;28;19960;-87
2022/07/21 01:28:30;;;;;;;;;;;18.80;60.80;;;;;;4139428;28;20252;-85
2022/07/21 01:30:32;;;;;;;;;;;18.70;60.90;;;;;;4141544;28;19963;-84
2022/07/21 01:32:52;;;;;;;;;;;18.70;60.60;;;;;;4139988;28;20541;-84
2022/07/21 01:35:14;;;;;;;;;;;18.70;60.70;;;;;;4140815;28;19914;-87
2022/07/21 01:37:38;;;;;;;;;;;18.70;61.00;;;;;;4142401;28;20020;-85
2022/07/21 01:42:40;;;;;;;;;;;18.60;61.40;;;;;;4146331;28;19921;-83
2022/07/21 01:45:01;;;;;;;;;;;18.60;61.30;;;;;;4142047;28;19917;-87
2022/07/21 01:47:22;;;;;;;;;;;18.50;61.60;;;;;;4142501;28;20481;-83
2022/07/21 01:49:43;;;;;;;;;;;18.50;61.80;;;;;;4131651;28;19926;-85
2022/07/21 01:52:04;;;;;;;;;;;18.50;62.00;;;;;;4131528;28;19944;-87
2022/07/21 01:54:24;;;;;;;;;;;18.50;62.20;;;;;;4129223;28;19917;-85
2022/07/21 01:56:45;;;;;;;;;;;18.40;62.30;;;;;;4130709;28;19917;-85
2022/07/21 01:59:06;;;;;;;;;;;18.40;62.50;;;;;;4146235;28;20120;-84
2022/07/21 02:01:28;;;;;;;;;;;18.40;62.70;;;;;;4144774;28;19996;-85
2022/07/21 02:03:49;;;;;;;;;;;18.40;62.80;;;;;;4132299;28;20388;-87
2022/07/21 02:06:10;;;;;;;;;;;18.40;62.90;;;;;;4144871;28;19959;-85
2022/07/21 02:08:31;;;;;;;;;;;18.30;63.10;;;;;;4147582;28;19913;-84
2022/07/21 02:10:51;;;;;;;;;;;18.30;63.00;;;;;;4147230;28;19929;-85
2022/07/21 02:12:52;;;;;;;;;;;18.30;63.30;;;;;;4138979;28;19972;-87
2022/07/21 02:14:53;;;;;;;;;;;18.30;63.30;;;;;;4152063;28;20011;-86
2022/07/21 02:16:53;;;;;;;;;;;18.30;63.30;;;;;;4146327;28;19928;-86
2022/07/21 02:18:54;;;;;;;;;;;18.30;63.40;;;;;;4147626;28;19913;-84
2022/07/21 02:20:55;;;;;;;;;;;18.20;63.60;;;;;;4146564;28;20115;-85
2022/07/21 02:22:55;;;;;;;;;;;18.30;63.60;;;;;;4145245;28;20037;-84
2022/07/21 02:24:56;;;;;;;;;;;18.20;63.50;;;;;;4144039;28;19921;-85
2022/07/21 02:26:57;;;;;;;;;;;18.20;63.40;;;;;;4142401;28;20295;-86
2022/07/21 02:28:57;;;;;;;;;;;18.20;63.50;;;;;;4145075;28;19932;-85
2022/07/21 02:30:58;;;;;;;;;;;18.20;63.50;;;;;;4147054;28;20394;-86
2022/07/21 02:32:58;;;;;;;;;;;18.20;63.70;;;;;;4126729;28;19966;-85
2022/07/21 02:34:59;;;;;;;;;;;18.20;64.10;;;;;;4145026;28;19921;-85
2022/07/21 02:36:59;;;;;;;;;;;18.20;64.00;;;;;;4141357;28;19920;-85
2022/07/21 02:39:00;;;;;;;;;;;18.10;64.40;;;;;;4144119;28;19917;-84
2022/07/21 02:41:01;;;;;;;;;;;18.10;64.50;;;;;;4142575;28;20015;-86
2022/07/21 02:43:02;;;;;;;;;;;18.10;64.40;;;;;;4125963;28;20379;-85
2022/07/21 02:45:03;;;;;;;;;;;18.10;64.40;;;;;;4143212;28;20284;-87
2022/07/21 02:47:04;;;;;;;;;;;18.10;64.20;;;;;;4125209;28;19917;-85
2022/07/21 02:49:04;;;;;;;;;;;18.10;64.00;;;;;;4141102;28;20550;-85
2022/07/21 02:51:04;;;;;;;;;;;18.10;63.90;;;;;;4144524;28;19913;-86
2022/07/21 02:53:07;;;;;;;;;;;18.10;63.90;;;;;;4143961;28;19913;-89
2022/07/21 02:55:08;;;;;;;;;;;18.10;63.90;;;;;;4128982;28;20028;-85
2022/07/21 02:57:09;;;;;;;;;;;18.10;64.00;;;;;;4126029;28;19921;-86
2022/07/21 02:59:09;;;;;;;;;;;18.10;64.40;;;;;;4142670;28;19921;-85
2022/07/21 03:01:10;;;;;;;;;;;18.10;64.40;;;;;;4143825;28;19918;-86
2022/07/21 03:03:11;;;;;;;;;;;18.10;64.40;;;;;;4142906;28;19962;-84
2022/07/21 03:05:11;;;;;;;;;;;18.00;64.40;;;;;;4142672;28;20368;-85
2022/07/21 03:07:12;;;;;;;;;;;18.10;64.40;;;;;;4143738;28;20319;-86
2022/07/21 03:09:12;;;;;;;;;;;18.00;64.40;;;;;;4142501;28;19933;-85
2022/07/21 03:11:13;;;;;;;;;;;18.00;64.40;;;;;;4144425;28;19921;-85
2022/07/21 03:13:14;;;;;;;;;;;18.00;64.60;;;;;;4124890;28;20099;-86
2022/07/21 03:15:14;;;;;;;;;;;18.00;64.80;;;;;;4128928;28;19922;-86
2022/07/21 03:17:15;;;;;;;;;;;18.00;64.70;;;;;;4143672;28;19996;-86
2022/07/21 03:19:16;;;;;;;;;;;18.00;65.00;;;;;;4143109;28;20039;-85
2022/07/21 03:21:16;;;;;;;;;;;18.00;64.90;;;;;;4124764;28;19969;-85
2022/07/21 03:23:17;;;;;;;;;;;17.90;65.20;;;;;;4145632;28;19944;-84
2022/07/21 03:25:19;;;;;;;;;;;18.00;65.20;;;;;;4142703;28;19924;-86
2022/07/21 03:27:20;;;;;;;;;;;17.90;65.20;;;;;;4144004;28;19959;-84
2022/07/21 03:29:20;;;;;;;;;;;17.90;65.30;;;;;;4125451;28;19993;-84
2022/07/21 03:31:21;;;;;;;;;;;17.90;65.10;;;;;;4143715;28;19932;-84
2022/07/21 03:33:21;;;;;;;;;;;17.90;65.30;;;;;;4142743;28;20375;-85
2022/07/21 03:35:42;;;;;;;;;;;17.90;65.60;;;;;;4142992;28;19941;-84
2022/07/21 03:37:44;;;;;;;;;;;17.90;65.80;;;;;;4124393;28;19918;-83
2022/07/21 03:39:55;;;;;;;;;;;17.90;67.00;;;;;;4127736;28;19929;-83
2022/07/21 03:42:15;;;;;;;;;;;17.90;67.20;;;;;;4157064;28;19925;-88
2022/07/21 03:44:36;;;;;;;;;;;18.00;68.20;;;;;;4137143;28;19913;-87
2022/07/21 03:46:38;;;;;;;;;;;18.00;68.40;;;;;;4116196;28;19976;-84
2022/07/21 03:48:58;;;;;;;;;;;18.00;68.30;;;;;;4145215;28;20423;-85
2022/07/21 03:51:19;;;;;;;;;;;18.00;69.30;;;;;;4130441;28;19920;-85
2022/07/21 03:53:39;;;;;;;;;;;18.00;68.80;;;;;;4143709;28;19913;-84
2022/07/21 03:56:00;;;;;;;;;;;18.00;69.60;;;;;;4137336;28;20411;-85
2022/07/21 03:58:20;;;;;;;;;;;18.00;68.70;;;;;;4129329;28;19914;-84
2022/07/21 04:00:42;;;;;;;;;;;18.00;67.90;;;;;;4143062;28;19932;-85
2022/07/21 04:03:03;;;;;;;;;;;18.00;68.00;;;;;;4144251;28;19960;-84
2022/07/21 04:05:25;;;;;;;;;;;18.10;67.70;;;;;;4142476;28;19917;-84
2022/07/21 04:07:46;;;;;;;;;;;18.10;67.50;;;;;;4145007;28;19981;-84
2022/07/21 04:10:08;;;;;;;;;;;18.10;67.70;;;;;;4144144;28;19917;-84
2022/07/21 04:12:28;;;;;;;;;;;18.10;67.50;;;;;;4143955;28;20232;-84
2022/07/21 04:14:49;;;;;;;;;;;18.10;67.50;;;;;;4130181;28;19914;-84
2022/07/21 04:17:09;;;;;;;;;;;18.20;67.50;;;;;;4127931;28;19949;-85
2022/07/21 04:19:30;;;;;;;;;;;18.20;67.60;;;;;;4143590;28;19921;-87
2022/07/21 04:21:30;;;;;;;;;;;18.20;67.60;;;;;;4143188;28;19956;-84
2022/07/21 04:23:32;;;;;;;;;;;18.20;67.80;;;;;;4142781;28;19920;-84
2022/07/21 04:25:44;;;;;;;;;;;18.30;67.90;;;;;;4125605;28;19917;-86
2022/07/21 04:27:47;;;;;;;;;;;18.30;68.20;;;;;;4142527;28;20600;-84
2022/07/21 04:30:08;;;;;;;;;;;18.30;68.20;;;;;;4142913;28;19952;-84
2022/07/21 04:32:29;;;;;;;;;;;18.30;67.80;;;;;;4143617;28;19953;-84
2022/07/21 04:34:49;;;;;;;;;;;18.40;68.20;;;;;;4141658;28;19921;-84
2022/07/21 04:37:10;;;;;;;;;;;18.40;68.90;;;;;;4141537;28;19913;-84
2022/07/21 04:39:30;;;;;;;;;;;18.50;69.10;;;;;;4139188;28;19968;-84
2022/07/21 04:41:51;;;;;;;;;;;18.50;68.40;;;;;;4141899;28;20295;-85
2022/07/21 04:44:11;;;;;;;;;;;18.50;68.30;;;;;;4139177;28;19913;-85
2022/07/21 04:46:32;;;;;;;;;;;18.50;68.10;;;;;;4141119;28;19976;-85
2022/07/21 04:48:52;;;;;;;;;;;18.50;68.10;;;;;;4140127;28;20343;-85
2022/07/21 04:51:13;;;;;;;;;;;18.50;68.00;;;;;;4140823;28;20026;-85
2022/07/21 04:53:33;;;;;;;;;;;18.60;68.10;;;;;;4142048;28;19925;-87
2022/07/21 04:55:54;;;;;;;;;;;18.60;68.10;;;;;;4140417;28;19960;-86
2022/07/21 04:58:14;;;;;;;;;;;18.60;67.90;;;;;;4124454;28;19925;-86
2022/07/21 05:00:17;;;;;;;;;;;18.60;67.80;;;;;;4137015;28;19913;-84
2022/07/21 05:02:18;;;;;;;;;;;18.60;67.80;;;;;;4138596;28;19932;-84
2022/07/21 05:04:18;;;;;;;;;;;18.60;67.70;;;;;;4123614;28;19968;-85
2022/07/21 05:06:19;;;;;;;;;;;18.70;67.80;;;;;;4142014;28;19970;-86
2022/07/21 05:08:19;;;;;;;;;;;18.70;68.00;;;;;;4140409;28;19959;-85
2022/07/21 05:10:21;;;;;;;;;;;18.70;68.10;;;;;;4140539;28;19979;-85
2022/07/21 05:12:21;;;;;;;;;;;18.70;68.00;;;;;;4139630;28;20012;-87
2022/07/21 05:14:22;;;;;;;;;;;18.70;68.10;;;;;;4125167;28;19914;-84
2022/07/21 05:16:22;;;;;;;;;;;18.70;68.80;;;;;;4139737;28;19914;-85
2022/07/21 05:18:23;;;;;;;;;;;18.80;69.00;;;;;;4123749;28;19921;-84
2022/07/21 05:20:24;;;;;;;;;;;18.80;68.60;;;;;;4121971;28;20017;-85
2022/07/21 05:22:26;;;;;;;;;;;18.80;68.70;;;;;;4140856;28;19918;-87
2022/07/21 05:24:26;;;;;;;;;;;18.90;68.70;;;;;;4109724;28;19922;-85
2022/07/21 05:26:27;;;;;;;;;;;18.90;68.80;;;;;;4140500;28;19921;-85
2022/07/21 05:28:28;;;;;;;;;;;18.90;69.10;;;;;;4141329;28;19928;-85
2022/07/21 05:30:28;;;;;;;;;;;19.00;69.10;;;;;;4137760;28;20303;-88
2022/07/21 05:32:29;;;;;;;;;;;19.00;68.90;;;;;;4120610;28;19921;-84
2022/07/21 05:34:29;;;;;;;;;;;19.10;69.20;;;;;;4140462;28;19914;-85
2022/07/21 05:36:30;;;;;;;;;;;19.10;69.10;;;;;;4138810;28;19913;-85
2022/07/21 05:38:31;;;;;;;;;;;19.10;69.50;;;;;;4128055;28;19969;-86
2022/07/21 05:40:31;;;;;;;;;;;19.20;69.40;;;;;;4125032;28;19958;-85
2022/07/21 05:42:32;;;;;;;;;;;19.20;69.30;;;;;;4108506;28;19985;-85
2022/07/21 05:44:35;;;;;;;;;;;19.30;69.70;;;;;;4141419;28;19922;-85
2022/07/21 05:46:37;;;;;;;;;;;19.30;69.70;;;;;;4125395;28;20599;-87
2022/07/21 05:48:39;;;;;;;;;;;19.40;69.50;;;;;;4125286;28;20574;-85
2022/07/21 05:50:40;;;;;;;;;;;19.40;69.50;;;;;;4150542;28;19953;-85
2022/07/21 05:52:41;;;;;;;;;;;19.50;69.80;;;;;;4136595;28;19925;-86
2022/07/21 05:54:41;;;;;;;;;;;19.50;70.20;;;;;;4153740;28;19924;-88
2022/07/21 05:56:42;;;;;;;;;;;19.60;69.80;;;;;;4140494;28;19917;-85
2022/07/21 05:58:43;;;;;;;;;;;19.60;69.90;;;;;;4122092;28;20000;-85
2022/07/21 06:00:43;;;;;;;;;;;19.70;69.90;;;;;;4140892;28;20478;-85
2022/07/21 06:02:45;;;;;;;;;;;19.70;70.60;;;;;;4142241;28;19922;-90
2022/07/21 06:04:45;;;;;;;;;;;19.80;70.20;;;;;;4140566;28;20029;-85
2022/07/21 06:07:06;;;;;;;;;;;19.80;70.30;;;;;;4140781;28;19925;-85
2022/07/21 06:09:06;;;;;;;;;;;19.90;70.40;;;;;;4124533;28;19914;-87
2022/07/21 06:11:08;;;;;;;;;;;19.90;70.00;;;;;;4131339;28;19928;-89
2022/07/21 06:13:08;;;;;;;;;;;20.00;70.30;;;;;;4135409;28;19968;-88
2022/07/21 06:15:09;;;;;;;;;;;20.00;69.90;;;;;;4144949;28;19922;-86
2022/07/21 06:17:10;;;;;;;;;;;20.10;70.40;;;;;;4141655;28;19914;-85
2022/07/21 06:19:10;;;;;;;;;;;20.20;70.30;;;;;;4119806;28;20120;-84
2022/07/21 06:21:19;;;;;;;;;;;20.20;70.10;;;;;;4124100;28;20108;-85
2022/07/21 06:23:20;;;;;;;;;;;20.30;69.90;;;;;;4126382;28;19957;-85
2022/07/21 06:25:21;;;;;;;;;;;20.30;69.60;;;;;;4139289;28;19925;-85
2022/07/21 06:27:21;;;;;;;;;;;20.40;69.50;;;;;;4139941;28;19972;-86
2022/07/21 06:29:23;;;;;;;;;;;20.40;69.40;;;;;;4127381;28;20898;-86
2022/07/21 06:31:26;;;;;;;;;;;20.50;69.00;;;;;;4127889;28;19921;-86
2022/07/21 06:33:26;;;;;;;;;;;20.50;68.70;;;;;;4143263;28;19976;-86
2022/07/21 06:35:27;;;;;;;;;;;20.60;68.50;;;;;;4144306;28;20407;-86
2022/07/21 06:37:28;;;;;;;;;;;20.60;68.30;;;;;;4128921;28;19972;-87
2022/07/21 06:39:30;;;;;;;;;;;20.60;67.90;;;;;;4126893;28;19914;-87
2022/07/21 06:41:31;;;;;;;;;;;20.70;67.90;;;;;;4143381;28;19926;-86
2022/07/21 06:43:33;;;;;;;;;;;20.80;67.90;;;;;;4129402;28;20371;-86
2022/07/21 06:45:36;;;;;;;;;;;20.80;67.70;;;;;;4127571;28;19936;-87
2022/07/21 06:48:01;;;;;;;;;;;20.80;67.60;;;;;;4142840;28;19938;-86
2022/07/21 06:50:21;;;;;;;;;;;20.90;67.50;;;;;;4141440;28;20368;-84
2022/07/21 06:52:42;;;;;;;;;;;21.00;67.20;;;;;;4131387;28;20013;-84
2022/07/21 06:55:03;;;;;;;;;;;21.00;66.90;;;;;;4143198;28;19960;-87
2022/07/21 06:57:27;;;;;;;;;;;21.10;66.90;;;;;;4141686;28;19954;-86
2022/07/21 06:59:48;;;;;;;;;;;21.10;66.60;;;;;;4130262;28;19940;-86
2022/07/21 07:02:12;;;;;;;;;;;21.20;66.40;;;;;;4138925;28;20466;-87
2022/07/21 07:04:13;;;;;;;;;;;21.20;66.10;;;;;;4141464;28;20306;-85
2022/07/21 07:06:14;;;;;;;;;;;21.30;65.90;;;;;;4127677;28;20001;-85
2022/07/21 07:08:14;;;;;;;;;;;21.30;65.50;;;;;;4142366;28;20387;-85
2022/07/21 07:10:15;;;;;;;;;;;21.40;65.40;;;;;;4145455;28;20020;-85
2022/07/21 07:12:16;;;;;;;;;;;21.40;65.40;;;;;;4127621;28;20420;-83
2022/07/21 07:14:16;;;;;;;;;;;21.50;65.50;;;;;;4124884;28;19914;-86
2022/07/21 07:16:17;;;;;;;;;;;21.50;65.10;;;;;;4140713;28;19925;-84
2022/07/21 07:18:20;;;;;;;;;;;21.60;64.80;;;;;;4142687;28;19963;-84
2022/07/21 07:20:21;;;;;;;;;;;21.60;64.60;;;;;;4139221;28;20122;-85
2022/07/21 07:22:21;;;;;;;;;;;21.70;64.60;;;;;;4141688;28;20402;-86
2022/07/21 07:24:22;;;;;;;;;;;21.70;65.40;;;;;;4139202;28;19917;-85
2022/07/21 07:26:23;;;;;;;;;;;21.80;64.40;;;;;;4139425;28;20319;-88
2022/07/21 07:28:23;;;;;;;;;;;21.80;64.00;;;;;;4143585;28;19920;-84
2022/07/21 07:30:29;;;;;;;;;;;21.90;64.20;;;;;;4139021;28;20430;-85
2022/07/21 07:32:30;;;;;;;;;;;22.00;64.20;;;;;;4122598;28;19922;-85
2022/07/21 07:34:30;;;;;;;;;;;22.10;63.90;;;;;;4141061;28;19928;-84
2022/07/21 07:36:31;;;;;;;;;;;22.10;63.70;;;;;;4142064;28;19921;-85
2022/07/21 07:38:31;;;;;;;;;;;22.20;63.60;;;;;;4120891;28;19924;-88
2022/07/21 07:40:32;;;;;;;;;;;22.20;63.40;;;;;;4142631;28;19917;-85
2022/07/21 07:42:33;;;;;;;;;;;22.30;62.80;;;;;;4143775;28;19917;-85
2022/07/21 07:44:34;;;;;;;;;;;22.30;62.40;;;;;;4119743;28;19924;-85
2022/07/21 07:46:34;;;;;;;;;;;22.40;62.30;;;;;;4140955;28;20399;-84
2022/07/21 07:48:36;;;;;;;;;;;22.40;62.40;;;;;;4136924;28;19918;-84
2022/07/21 07:50:37;;;;;;;;;;;22.40;62.20;;;;;;4143508;28;19921;-85
2022/07/21 07:52:38;;;;;;;;;;;22.50;62.20;;;;;;4143863;28;19913;-85
2022/07/21 07:54:39;;;;;;;;;;;22.50;62.20;;;;;;4125257;28;19925;-85
2022/07/21 07:56:40;;;;;;;;;;;22.60;61.90;;;;;;4139654;28;19960;-85
2022/07/21 07:58:41;;;;;;;;;;;22.60;61.40;;;;;;4140514;28;19922;-87
2022/07/21 08:03:40;;;;;;;;;;;22.60;61.00;;;;;;4140975;28;19917;-85
2022/07/21 08:05:40;;;;;;;;;;;22.60;61.00;;;;;;4120442;28;19952;-88
2022/07/21 08:07:41;;;;;;;;;;;22.70;61.50;;;;;;4120023;28;19921;-87
2022/07/21 08:09:41;;;;;;;;;;;22.60;60.80;;;;;;4116748;28;20564;-84
2022/07/21 08:12:12;;;;;;;;;;;22.70;60.70;;;;;;4118613;28;19918;-84
2022/07/21 08:14:36;;;;;;;;;;;22.80;60.80;;;;;;4140248;28;19913;-84
2022/07/21 08:19:10;;;;;;;;;;;22.80;60.40;;;;;;4114464;23;19957;-83
2022/07/21 08:21:11;;;;;;;;;;;22.80;59.90;;;;;;4061069;29;20085;-83
2022/07/21 08:23:29;;;;;;;;;;;22.80;59.70;;;;;;4072410;29;19926;-85
2022/07/21 08:28:13;;;;;;;;;;;22.80;59.80;;;;;;4570047;23;19979;-87
2022/07/21 08:30:13;;;;;;;;;;;22.80;59.90;;;;;;4116480;28;20439;-85
2022/07/21 08:32:14;;;;;;;;;;;22.80;59.80;;;;;;4103302;28;19918;-84
2022/07/21 08:34:14;;;;;;;;;;;22.80;59.50;;;;;;4106710;28;19918;-87
2022/07/21 08:36:15;;;;;;;;;;;22.80;59.50;;;;;;4091574;28;19954;-84
2022/07/21 08:38:16;;;;;;;;;;;22.80;59.50;;;;;;4124217;28;19922;-84
2022/07/21 08:40:17;;;;;;;;;;;22.80;59.40;;;;;;4106951;28;20415;-83
2022/07/21 08:42:17;;;;;;;;;;;22.80;59.20;;;;;;4122687;28;19913;-84
2022/07/21 08:44:20;;;;;;;;;;;22.80;59.20;;;;;;4121140;28;19917;-85
2022/07/21 08:46:22;;;;;;;;;;;22.70;59.10;;;;;;4118229;28;19922;-83
2022/07/21 08:48:25;;;;;;;;;;;22.70;59.30;;;;;;4121990;28;19917;-84
2022/07/21 08:50:30;;;;;;;;;;;22.70;59.30;;;;;;4120757;28;19914;-85
2022/07/21 08:52:31;;;;;;;;;;;22.70;59.60;;;;;;4122053;28;19922;-84
2022/07/21 08:54:32;;;;;;;;;;;22.70;59.90;;;;;;4127150;28;19933;-85
2022/07/21 08:56:32;;;;;;;;;;;22.70;60.10;;;;;;4125428;28;19925;-87
2022/07/21 08:58:35;;;;;;;;;;;22.80;60.40;;;;;;4108472;28;19953;-85
2022/07/21 09:00:36;;;;;;;;;;;22.80;60.90;;;;;;4121772;28;20403;-85
2022/07/21 09:02:37;;;;;;;;;;;22.90;61.10;;;;;;4122108;28;19910;-85
2022/07/21 09:04:40;;;;;;;;;;;23.00;61.10;;;;;;4124756;28;19914;-85
2022/07/21 09:06:50;;;;;;;;;;;23.10;60.80;;;;;;4417029;23;19948;-85
2022/07/21 09:08:53;;;;;;;;;;;23.20;60.50;;;;;;4122477;28;19929;-86
2022/07/21 09:11:06;;;;;;;;;;;23.30;60.20;;;;;;4126181;28;19933;-84
2022/07/21 09:13:07;;;;;;;;;;;23.40;60.00;;;;;;4120734;28;19922;-85
2022/07/21 09:15:15;;;;;;;;;;;23.40;59.90;;;;;;4109230;28;20390;-84
2022/07/21 09:23:41;;;;;;;;;;;23.70;58.70;;;;;;4033126;29;20331;-85
2022/07/21 09:25:43;;;;;;;;;;;23.80;58.80;;;;;;4028221;29;19999;-86
2022/07/21 09:27:43;;;;;;;;;;;23.80;58.50;;;;;;4027186;29;20050;-84
2022/07/21 09:29:46;;;;;;;;;;;23.80;58.10;;;;;;4025316;29;19915;-86
2022/07/21 09:31:46;;;;;;;;;;;23.90;58.20;;;;;;4021294;29;19931;-84
2022/07/21 09:33:47;;;;;;;;;;;23.90;57.10;;;;;;4027511;29;20386;-84
2022/07/21 09:36:11;;;;;;;;;;;23.90;57.30;;;;;;4029200;29;20729;-84
2022/07/21 09:38:28;;;;;;;;;;;23.90;57.10;;;;;;4027445;29;20438;-82
2022/07/21 09:40:28;;;;;;;;;;;23.90;57.20;;;;;;4024368;29;20620;-86
2022/07/21 09:42:31;;;;;;;;;;;23.80;56.80;;;;;;4026244;29;19967;-85
2022/07/21 09:44:41;;;;;;;;;;;23.80;56.90;;;;;;4039741;29;19924;-90
2022/07/21 09:46:41;;;;;;;;;;;23.80;57.10;;;;;;4033878;29;20047;-84
2022/07/21 09:48:43;;;;;;;;;;;23.80;56.90;;;;;;4032126;29;20389;-85
2022/07/21 09:54:05;;;;;;;;;;;23.80;56.90;;;;;;4038160;29;19934;-87
2022/07/21 09:58:18;;;;;;;;;;;23.70;57.00;;;;;;4112250;23;19953;-88
2022/07/21 10:00:21;;;;;;;;;;;23.70;57.20;;;;;;4075942;29;19983;-87
2022/07/21 10:02:35;;;;;;;;;;;23.70;57.20;;;;;;4093029;28;19961;-87
2022/07/21 10:04:36;;;;;;;;;;;23.60;57.30;;;;;;4093509;28;19922;-87
2022/07/21 10:06:39;;;;;;;;;;;23.60;57.30;;;;;;4106309;23;19976;-86
2022/07/21 10:08:39;;;;;;;;;;;23.60;57.00;;;;;;4121464;28;19921;-88
2022/07/21 10:10:40;;;;;;;;;;;23.60;57.00;;;;;;4124526;28;19966;-87
2022/07/21 10:15:49;;;;;;;;;;;23.60;57.10;;;;;;4065005;29;20432;-85
2022/07/21 10:18:10;;;;;;;;;;;23.60;57.40;;;;;;4062325;29;19915;-86
2022/07/21 10:20:30;;;;;;;;;;;23.50;56.90;;;;;;4053297;29;19930;-84
2022/07/21 10:22:54;;;;;;;;;;;23.50;56.90;;;;;;4057706;29;19975;-88
2022/07/21 10:25:18;;;;;;;;;;;23.40;56.70;;;;;;4074609;29;19926;-85
2022/07/21 10:27:59;;;;;;;;;;;23.50;57.10;;;;;;4064272;29;20002;-86
2022/07/21 10:30:45;;;;;;;;;;;23.40;57.40;;;;;;4063231;29;19919;-85
2022/07/21 10:33:30;;;;;;;;;;;23.40;57.80;;;;;;4065311;29;19929;-86
2022/07/21 10:36:47;;;;;;;;;;;23.40;58.00;;;;;;4068804;29;20300;-85
2022/07/21 10:38:48;;;;;;;;;;;23.40;58.30;;;;;;4024124;29;19968;-85
2022/07/21 10:41:28;;;;;;;;;;;23.40;58.50;;;;;;4024369;29;19924;-85
2022/07/21 10:43:28;;;;;;;;;;;23.40;58.40;;;;;;4013743;29;19927;-87
2022/07/21 10:45:36;;;;;;;;;;;23.50;58.20;;;;;;4043709;29;19923;-87
2022/07/21 10:47:44;;;;;;;;;;;23.50;58.00;;;;;;4029255;29;19923;-85
2022/07/21 10:49:55;;;;;;;;;;;23.60;58.10;;;;;;4030275;29;20012;-83
2022/07/21 10:51:56;;;;;;;;;;;23.60;57.60;;;;;;4047520;29;20029;-87
2022/07/21 10:57:16;;;;;;;;;;;23.70;58.40;;;;;;4061739;29;19974;-88
2022/07/21 10:59:17;;;;;;;;;;;23.80;58.80;;;;;;4060867;29;19930;-86
2022/07/21 11:07:09;;;;;;;;;;;24.00;58.30;;;;;;4014102;29;19920;-86
2022/07/21 11:10:00;;;;;;;;;;;24.10;57.80;;;;;;4015045;29;19920;-86
2022/07/21 11:14:52;;;;;;;;;;;24.20;57.50;;;;;;3973177;29;20315;-88
2022/07/21 11:17:04;;;;;;;;;;;24.40;57.60;;;;;;3982900;29;19921;-87
2022/07/21 11:19:25;;;;;;;;;;;24.40;57.70;;;;;;3981128;29;19955;-86
2022/07/21 11:21:44;;;;;;;;;;;24.50;57.80;;;;;;3970074;29;19931;-86
2022/07/21 11:30:01;;;;;;;;;;;24.90;55.80;;;;;;4055356;29;20631;-87
2022/07/21 11:32:05;;;;;;;;;;;24.90;56.10;;;;;;4074497;29;20653;-88
2022/07/21 11:34:16;;;;;;;;;;;25.00;55.70;;;;;;4058217;29;19923;-90
2022/07/21 11:39:24;;;;;;;;;;;25.10;55.20;;;;;;4076568;29;19927;-90
2022/07/21 11:41:50;;;;;;;;;;;25.20;55.00;;;;;;4068949;29;19925;-90
2022/07/21 11:43:59;;;;;;;;;;;25.30;54.50;;;;;;4038605;29;19916;-87
2022/07/21 11:46:00;;;;;;;;;;;25.30;54.60;;;;;;4061977;29;19969;-88
2022/07/21 11:48:38;;;;;;;;;;;25.30;54.10;;;;;;4051469;29;20778;-89
2022/07/21 11:51:01;;;;;;;;;;;25.30;54.40;;;;;;4143360;23;19926;-89
2022/07/21 11:53:02;;;;;;;;;;;25.40;54.90;;;;;;4097506;28;19922;-91
2022/07/21 11:55:03;;;;;;;;;;;25.40;55.10;;;;;;4111802;28;19988;-87
2022/07/21 11:57:06;;;;;;;;;;;25.50;55.10;;;;;;4091009;28;19914;-88
2022/07/21 11:59:10;;;;;;;;;;;25.50;55.00;;;;;;4108144;28;19929;-90
2022/07/21 12:01:11;;;;;;;;;;;25.50;55.20;;;;;;4102940;28;19918;-89
2022/07/21 12:03:13;;;;;;;;;;;25.60;54.70;;;;;;4110410;28;20123;-90
2022/07/21 12:05:15;;;;;;;;;;;25.60;54.60;;;;;;4077399;28;19973;-90
2022/07/21 12:07:18;;;;;;;;;;;25.70;54.50;;;;;;4105152;28;20366;-84
2022/07/21 12:09:28;;;;;;;;;;;25.70;54.60;;;;;;4113984;28;19922;-94
2022/07/21 12:11:51;;;;;;;;;;;25.80;54.60;;;;;;4104428;28;20441;-94
2022/07/21 12:14:02;;;;;;;;;;;25.80;54.10;;;;;;4092061;28;19919;-92
2022/07/21 12:16:04;;;;;;;;;;;25.80;53.80;;;;;;4105165;28;19922;-93
2022/07/21 12:18:25;;;;;;;;;;;25.80;53.90;;;;;;4108450;28;19951;-94
2022/07/21 12:20:40;;;;;;;;;;;25.80;53.70;;;;;;4104745;28;19914;-93
2022/07/21 12:22:58;;;;;;;;;;;25.90;53.10;;;;;;4092232;28;19915;-93
2022/07/21 12:25:01;;;;;;;;;;;25.80;53.10;;;;;;4123169;28;20470;-95
2022/07/21 12:27:29;;;;;;;;;;;25.90;53.60;;;;;;4103107;28;19923;-92
2022/07/21 12:29:30;;;;;;;;;;;25.90;53.10;;;;;;4089482;28;19925;-93
2022/07/21 12:31:39;;;;;;;;;;;25.90;53.40;;;;;;4106118;28;19922;-90
2022/07/21 12:34:10;;;;;;;;;;;26.00;51.90;;;;;;4119287;28;20271;-89
2022/07/21 12:36:33;;;;;;;;;;;26.00;52.40;;;;;;4107758;28;20009;-91
2022/07/21 12:38:57;;;;;;;;;;;26.00;51.70;;;;;;4121850;28;19960;-92
2022/07/21 12:41:21;;;;;;;;;;;26.00;51.70;;;;;;4104980;28;20325;-93
2022/07/21 12:43:46;;;;;;;;;;;26.00;51.50;;;;;;4113863;28;19918;-92
2022/07/21 12:46:14;;;;;;;;;;;26.00;51.60;;;;;;4112448;28;19964;-92
2022/07/21 12:48:36;;;;;;;;;;;26.10;52.10;;;;;;4121642;28;19918;-92
2022/07/21 12:51:00;;;;;;;;;;;26.00;52.00;;;;;;4108081;28;19921;-92
2022/07/21 12:53:13;;;;;;;;;;;26.00;51.80;;;;;;4120687;28;20055;-94
2022/07/21 12:55:21;;;;;;;;;;;25.90;51.40;;;;;;4088983;28;19929;-91
2022/07/21 12:57:40;;;;;;;;;;;;;;;;;;;;;
2022/07/21 12:59:48;;;;;;;;;;;25.90;51.80;;;;;;4119343;28;19918;-94
2022/07/21 13:01:51;;;;;;;;;;;25.90;51.70;;;;;;4115846;28;20304;-93
2022/07/21 13:04:01;;;;;;;;;;;25.90;51.40;;;;;;4129341;28;19968;-94
2022/07/21 13:11:01;;;;;;;;;;;25.80;52.00;;;;;;4066023;29;19971;-93
2022/07/21 13:13:17;;;;;;;;;;;25.80;52.40;;;;;;4045537;29;19920;-92
2022/07/21 13:15:24;;;;;;;;;;;25.80;52.20;;;;;;4063936;29;21337;-91